sensor_id;sensor_type;location;lat;lon;timestamp;pressure;altitude;pressure_sealevel;temperature;humidity
51460;BME280;37534;39.772;2.718;2023-08-01T00:01:28;101091.03;;;25.90;100.00
51460;BME280;37534;39.772;2.718;2023-08-01T00:03:54;101086.94;;;25.97;100.00
51460;BME280;37534;39.772;2.718;2023-08-01T00:06:20;101079.47;;;25.91;100.00
51460;BME280;37534;39.772;2.718;2023-08-01T00:08:47;101076.72;;;25.93;100.00
51460;BME280;37534;39.772;2.718;2023-08-01T00:11:13;101080.91;;;25.95;100.00
51460;BME280;37534;39.772;2.718;2023-08-01T00:13:40;101069.88;;;25.90;100.00
51460;BME280;37534;39.772;2.718;2023-08-01T00:16:06;101062.22;;;25.87;100.00
51460;BME280;37534;39.772;2.718;2023-08-01T00:18:31;101031.78;;;25.72;100.00
51460;BME280;37534;39.772;2.718;2023-08-01T00:20:57;101047.75;;;25.91;100.00
51460;BME280;37534;39.772;2.718;2023-08-01T00:23:24;101032.38;;;25.96;100.00
51460;BME280;37534;39.772;2.718;2023-08-01T00:25:49;101026.03;;;25.88;100.00
51460;BME280;37534;39.772;2.718;2023-08-01T00:28:17;101026.56;;;25.82;100.00
51460;BME280;37534;39.772;2.718;2023-08-01T00:30:43;101019.28;;;25.74;100.00
51460;BME280;37534;39.772;2.718;2023-08-01T00:33:11;101019.28;;;25.74;100.00
51460;BME280;37534;39.772;2.718;2023-08-01T00:35:36;101025.81;;;25.70;100.00
51460;BME280;37534;39.772;2.718;2023-08-01T00:38:02;101022.63;;;25.76;100.00
51460;BME280;37534;39.772;2.718;2023-08-01T00:40:31;101020.38;;;25.92;100.00
51460;BME280;37534;39.772;2.718;2023-08-01T00:42:57;101015.03;;;25.83;100.00
51460;BME280;37534;39.772;2.718;2023-08-01T00:45:23;101013.53;;;25.90;100.00
51460;BME280;37534;39.772;2.718;2023-08-01T00:47:52;100999.28;;;25.81;100.00
51460;BME280;37534;39.772;2.718;2023-08-01T00:50:18;100994.19;;;25.89;100.00
51460;BME280;37534;39.772;2.718;2023-08-01T00:52:46;100991.78;;;25.76;100.00
51460;BME280;37534;39.772;2.718;2023-08-01T00:55:13;100995.81;;;25.80;100.00
51460;BME280;37534;39.772;2.718;2023-08-01T00:57:40;100992.84;;;25.74;100.00
51460;BME280;37534;39.772;2.718;2023-08-01T01:00:06;100984.19;;;25.62;100.00
51460;BME280;37534;39.772;2.718;2023-08-01T01:02:32;100991.72;;;25.67;100.00
51460;BME280;37534;39.772;2.718;2023-08-01T01:04:57;101008.44;;;25.67;100.00
51460;BME280;37534;39.772;2.718;2023-08-01T01:07:25;100989.88;;;25.57;100.00
51460;BME280;37534;39.772;2.718;2023-08-01T01:09:51;101007.19;;;25.50;100.00
51460;BME280;37534;39.772;2.718;2023-08-01T01:12:17;101002.44;;;25.44;100.00
51460;BME280;37534;39.772;2.718;2023-08-01T01:14:42;100993.75;;;25.53;100.00
51460;BME280;37534;39.772;2.718;2023-08-01T01:17:08;100995.28;;;25.56;100.00
51460;BME280;37534;39.772;2.718;2023-08-01T01:19:34;100998.75;;;25.56;100.00
51460;BME280;37534;39.772;2.718;2023-08-01T01:22:00;101000.78;;;25.74;100.00
51460;BME280;37534;39.772;2.718;2023-08-01T01:24:27;101007.91;;;25.83;100.00
51460;BME280;37534;39.772;2.718;2023-08-01T01:26:54;100989.78;;;25.69;100.00
51460;BME280;37534;39.772;2.718;2023-08-01T01:29:22;100982.84;;;25.68;100.00
51460;BME280;37534;39.772;2.718;2023-08-01T01:31:49;100968.72;;;25.57;100.00
51460;BME280;37534;39.772;2.718;2023-08-01T01:34:15;100981.47;;;25.73;100.00
51460;BME280;37534;39.772;2.718;2023-08-01T01:36:41;100985.78;;;25.74;100.00
51460;BME280;37534;39.772;2.718;2023-08-01T01:39:07;100982.00;;;25.67;100.00
51460;BME280;37534;39.772;2.718;2023-08-01T01:41:32;100993.19;;;25.59;100.00
51460;BME280;37534;39.772;2.718;2023-08-01T01:43:58;100992.28;;;25.70;100.00
51460;BME280;37534;39.772;2.718;2023-08-01T01:46:23;100988.47;;;25.84;100.00
51460;BME280;37534;39.772;2.718;2023-08-01T01:48:49;100974.81;;;25.79;100.00
51460;BME280;37534;39.772;2.718;2023-08-01T01:51:14;100975.84;;;25.67;100.00
51460;BME280;37534;39.772;2.718;2023-08-01T01:53:40;100966.31;;;25.45;100.00
51460;BME280;37534;39.772;2.718;2023-08-01T01:56:05;100979.38;;;25.46;100.00
51460;BME280;37534;39.772;2.718;2023-08-01T01:58:31;100981.56;;;25.41;100.00
51460;BME280;37534;39.772;2.718;2023-08-01T02:00:57;100974.94;;;25.26;100.00
51460;BME280;37534;39.772;2.718;2023-08-01T02:03:22;100970.81;;;25.33;100.00
51460;BME280;37534;39.772;2.718;2023-08-01T02:05:48;100983.75;;;25.36;100.00
51460;BME280;37534;39.772;2.718;2023-08-01T02:08:13;100984.84;;;25.33;100.00
51460;BME280;37534;39.772;2.718;2023-08-01T02:10:39;100981.63;;;25.30;100.00
51460;BME280;37534;39.772;2.718;2023-08-01T02:13:04;100975.16;;;25.22;100.00
51460;BME280;37534;39.772;2.718;2023-08-01T02:15:30;100975.63;;;25.28;100.00
51460;BME280;37534;39.772;2.718;2023-08-01T02:17:56;100970.63;;;25.25;100.00
51460;BME280;37534;39.772;2.718;2023-08-01T02:20:21;100968.00;;;25.25;100.00
51460;BME280;37534;39.772;2.718;2023-08-01T02:22:47;100955.50;;;25.15;100.00
51460;BME280;37534;39.772;2.718;2023-08-01T02:25:13;100968.41;;;25.30;100.00
51460;BME280;37534;39.772;2.718;2023-08-01T02:27:38;100965.06;;;25.28;100.00
51460;BME280;37534;39.772;2.718;2023-08-01T02:30:04;100966.06;;;25.27;100.00
51460;BME280;37534;39.772;2.718;2023-08-01T02:32:33;100975.50;;;25.29;100.00
51460;BME280;37534;39.772;2.718;2023-08-01T02:34:59;100982.34;;;25.32;100.00
51460;BME280;37534;39.772;2.718;2023-08-01T02:37:24;100992.63;;;25.35;100.00
51460;BME280;37534;39.772;2.718;2023-08-01T02:39:50;101000.63;;;25.45;100.00
51460;BME280;37534;39.772;2.718;2023-08-01T02:42:15;100966.31;;;25.45;100.00
51460;BME280;37534;39.772;2.718;2023-08-01T02:44:41;100956.63;;;25.55;100.00
51460;BME280;37534;39.772;2.718;2023-08-01T02:47:07;100965.84;;;25.60;100.00
51460;BME280;37534;39.772;2.718;2023-08-01T02:49:32;100964.63;;;25.43;100.00
51460;BME280;37534;39.772;2.718;2023-08-01T02:51:58;100965.94;;;25.28;100.00
51460;BME280;37534;39.772;2.718;2023-08-01T02:54:24;100956.63;;;25.13;100.00
51460;BME280;37534;39.772;2.718;2023-08-01T02:56:50;100972.78;;;25.19;100.00
51460;BME280;37534;39.772;2.718;2023-08-01T02:59:16;100983.59;;;25.16;100.00
51460;BME280;37534;39.772;2.718;2023-08-01T03:01:44;100989.84;;;25.15;100.00
51460;BME280;37534;39.772;2.718;2023-08-01T03:04:09;100985.41;;;25.37;100.00
51460;BME280;37534;39.772;2.718;2023-08-01T03:06:37;100961.81;;;25.35;100.00
51460;BME280;37534;39.772;2.718;2023-08-01T03:09:03;100969.53;;;25.27;100.00
51460;BME280;37534;39.772;2.718;2023-08-01T03:11:28;100973.03;;;25.16;100.00
51460;BME280;37534;39.772;2.718;2023-08-01T03:13:54;100966.03;;;25.05;100.00
51460;BME280;37534;39.772;2.718;2023-08-01T03:16:20;100978.09;;;25.08;100.00
51460;BME280;37534;39.772;2.718;2023-08-01T03:18:45;100981.03;;;25.05;100.00
51460;BME280;37534;39.772;2.718;2023-08-01T03:21:11;100991.59;;;25.05;100.00
51460;BME280;37534;39.772;2.718;2023-08-01T03:23:37;100985.00;;;24.99;100.00
51460;BME280;37534;39.772;2.718;2023-08-01T03:26:02;100976.75;;;24.93;100.00
51460;BME280;37534;39.772;2.718;2023-08-01T03:28:28;100983.47;;;24.97;100.00
51460;BME280;37534;39.772;2.718;2023-08-01T03:30:54;100995.56;;;25.20;100.00
51460;BME280;37534;39.772;2.718;2023-08-01T03:33:20;100990.69;;;25.37;100.00
51460;BME280;37534;39.772;2.718;2023-08-01T03:35:46;100978.72;;;25.33;100.00
51460;BME280;37534;39.772;2.718;2023-08-01T03:38:11;100986.94;;;25.18;100.00
51460;BME280;37534;39.772;2.718;2023-08-01T03:40:37;100995.19;;;25.04;100.00
51460;BME280;37534;39.772;2.718;2023-08-01T03:43:03;100969.22;;;24.88;100.00
51460;BME280;37534;39.772;2.718;2023-08-01T03:45:28;100973.19;;;24.82;100.00
51460;BME280;37534;39.772;2.718;2023-08-01T03:47:54;100980.13;;;24.83;100.00
51460;BME280;37534;39.772;2.718;2023-08-01T03:50:20;100974.16;;;24.81;100.00
51460;BME280;37534;39.772;2.718;2023-08-01T03:52:46;100967.72;;;24.74;100.00
51460;BME280;37534;39.772;2.718;2023-08-01T03:55:12;100975.88;;;24.71;100.00
51460;BME280;37534;39.772;2.718;2023-08-01T03:57:37;100966.19;;;24.60;100.00
51460;BME280;37534;39.772;2.718;2023-08-01T04:00:06;100974.31;;;24.69;100.00
51460;BME280;37534;39.772;2.718;2023-08-01T04:02:40;100957.19;;;24.52;100.00
51460;BME280;37534;39.772;2.718;2023-08-01T04:05:07;100984.06;;;24.68;100.00
51460;BME280;37534;39.772;2.718;2023-08-01T04:07:36;100981.78;;;24.63;100.00
51460;BME280;37534;39.772;2.718;2023-08-01T04:10:02;100975.66;;;24.63;100.00
51460;BME280;37534;39.772;2.718;2023-08-01T04:12:30;100956.22;;;24.64;100.00
51460;BME280;37534;39.772;2.718;2023-08-01T04:14:56;100960.44;;;24.66;100.00
51460;BME280;37534;39.772;2.718;2023-08-01T04:17:21;100957.44;;;24.60;100.00
51460;BME280;37534;39.772;2.718;2023-08-01T04:19:47;100930.00;;;24.51;100.00
51460;BME280;37534;39.772;2.718;2023-08-01T04:22:12;100942.00;;;24.55;100.00
51460;BME280;37534;39.772;2.718;2023-08-01T04:24:38;100950.03;;;24.54;100.00
51460;BME280;37534;39.772;2.718;2023-08-01T04:27:04;100948.69;;;24.48;100.00
51460;BME280;37534;39.772;2.718;2023-08-01T04:29:29;100964.66;;;24.46;100.00
51460;BME280;37534;39.772;2.718;2023-08-01T04:31:56;100956.53;;;24.38;100.00
51460;BME280;37534;39.772;2.718;2023-08-01T04:34:22;100968.00;;;24.48;100.00
51460;BME280;37534;39.772;2.718;2023-08-01T04:36:47;100973.00;;;24.52;100.00
51460;BME280;37534;39.772;2.718;2023-08-01T04:39:13;100973.41;;;24.58;100.00
51460;BME280;37534;39.772;2.718;2023-08-01T04:41:38;100972.44;;;24.59;100.00
51460;BME280;37534;39.772;2.718;2023-08-01T04:44:04;100965.00;;;24.53;100.00
51460;BME280;37534;39.772;2.718;2023-08-01T04:46:30;100962.47;;;24.52;100.00
51460;BME280;37534;39.772;2.718;2023-08-01T04:48:55;100955.06;;;24.57;100.00
51460;BME280;37534;39.772;2.718;2023-08-01T04:51:21;100946.44;;;24.55;100.00
51460;BME280;37534;39.772;2.718;2023-08-01T04:53:46;100946.91;;;24.60;100.00
51460;BME280;37534;39.772;2.718;2023-08-01T04:56:12;100948.25;;;24.54;100.00
51460;BME280;37534;39.772;2.718;2023-08-01T04:58:38;100961.00;;;24.70;100.00
51460;BME280;37534;39.772;2.718;2023-08-01T05:01:03;100955.50;;;24.62;100.00
51460;BME280;37534;39.772;2.718;2023-08-01T05:03:29;100962.06;;;24.79;100.00
51460;BME280;37534;39.772;2.718;2023-08-01T05:05:54;100972.97;;;24.74;100.00
51460;BME280;37534;39.772;2.718;2023-08-01T05:08:20;100971.06;;;24.76;100.00
51460;BME280;37534;39.772;2.718;2023-08-01T05:10:45;100976.31;;;24.76;100.00
51460;BME280;37534;39.772;2.718;2023-08-01T05:13:11;100972.56;;;24.90;100.00
51460;BME280;37534;39.772;2.718;2023-08-01T05:15:37;100979.88;;;24.98;100.00
51460;BME280;37534;39.772;2.718;2023-08-01T05:18:02;100968.06;;;25.02;100.00
51460;BME280;37534;39.772;2.718;2023-08-01T05:20:28;100948.78;;;25.01;100.00
51460;BME280;37534;39.772;2.718;2023-08-01T05:22:59;100965.81;;;25.18;100.00
51460;BME280;37534;39.772;2.718;2023-08-01T05:25:25;100953.53;;;25.08;100.00
51460;BME280;37534;39.772;2.718;2023-08-01T05:27:50;100975.31;;;25.21;100.00
51460;BME280;37534;39.772;2.718;2023-08-01T05:30:16;100975.50;;;25.29;100.00
51460;BME280;37534;39.772;2.718;2023-08-01T05:32:42;100973.69;;;25.30;100.00
51460;BME280;37534;39.772;2.718;2023-08-01T05:35:09;100978.47;;;25.36;100.00
51460;BME280;37534;39.772;2.718;2023-08-01T05:37:35;100982.41;;;25.41;100.00
51460;BME280;37534;39.772;2.718;2023-08-01T05:40:03;100983.09;;;25.43;100.00
51460;BME280;37534;39.772;2.718;2023-08-01T05:42:29;100985.16;;;25.40;100.00
51460;BME280;37534;39.772;2.718;2023-08-01T05:44:54;100989.88;;;25.36;100.00
51460;BME280;37534;39.772;2.718;2023-08-01T05:47:20;100992.31;;;25.49;100.00
51460;BME280;37534;39.772;2.718;2023-08-01T05:49:48;100984.84;;;25.54;100.00
51460;BME280;37534;39.772;2.718;2023-08-01T05:52:14;100986.75;;;25.73;100.00
51460;BME280;37534;39.772;2.718;2023-08-01T05:54:39;100983.72;;;25.78;100.00
51460;BME280;37534;39.772;2.718;2023-08-01T05:57:06;100992.06;;;25.83;100.00
51460;BME280;37534;39.772;2.718;2023-08-01T05:59:31;100981.09;;;25.88;100.00
51460;BME280;37534;39.772;2.718;2023-08-01T06:01:57;100980.63;;;25.94;100.00
51460;BME280;37534;39.772;2.718;2023-08-01T06:04:23;100981.38;;;26.15;100.00
51460;BME280;37534;39.772;2.718;2023-08-01T06:06:48;100981.97;;;26.29;100.00
51460;BME280;37534;39.772;2.718;2023-08-01T06:09:14;100990.63;;;26.41;100.00
51460;BME280;37534;39.772;2.718;2023-08-01T06:11:40;100987.28;;;26.39;100.00
51460;BME280;37534;39.772;2.718;2023-08-01T06:14:06;100981.56;;;26.33;100.00
51460;BME280;37534;39.772;2.718;2023-08-01T06:16:31;100989.25;;;26.46;100.00
51460;BME280;37534;39.772;2.718;2023-08-01T06:18:58;100974.50;;;26.44;100.00
51460;BME280;37534;39.772;2.718;2023-08-01T06:21:23;100972.81;;;26.43;100.00
51460;BME280;37534;39.772;2.718;2023-08-01T06:23:49;100986.47;;;26.48;100.00
51460;BME280;37534;39.772;2.718;2023-08-01T06:26:15;100979.22;;;26.50;100.00
51460;BME280;37534;39.772;2.718;2023-08-01T06:28:41;100991.13;;;26.65;100.00
51460;BME280;37534;39.772;2.718;2023-08-01T06:31:07;100988.59;;;26.73;100.00
51460;BME280;37534;39.772;2.718;2023-08-01T06:33:35;100983.44;;;26.82;100.00
51460;BME280;37534;39.772;2.718;2023-08-01T06:36:01;100989.00;;;26.98;100.00
51460;BME280;37534;39.772;2.718;2023-08-01T06:38:26;100979.84;;;27.02;100.00
51460;BME280;37534;39.772;2.718;2023-08-01T06:40:52;100988.88;;;27.09;100.00
51460;BME280;37534;39.772;2.718;2023-08-01T06:43:17;100983.69;;;27.18;100.00
51460;BME280;37534;39.772;2.718;2023-08-01T06:45:43;100984.28;;;27.31;100.00
51460;BME280;37534;39.772;2.718;2023-08-01T06:48:09;100993.44;;;27.46;100.00
51460;BME280;37534;39.772;2.718;2023-08-01T06:50:34;100998.44;;;27.59;100.00
51460;BME280;37534;39.772;2.718;2023-08-01T06:53:01;101014.03;;;27.72;100.00
51460;BME280;37534;39.772;2.718;2023-08-01T06:55:27;101014.22;;;27.88;100.00
51460;BME280;37534;39.772;2.718;2023-08-01T06:57:52;100992.16;;;27.98;100.00
51460;BME280;37534;39.772;2.718;2023-08-01T07:00:18;101017.88;;;28.25;100.00
51460;BME280;37534;39.772;2.718;2023-08-01T07:02:43;101013.19;;;28.37;100.00
51460;BME280;37534;39.772;2.718;2023-08-01T07:05:09;101017.31;;;28.49;100.00
51460;BME280;37534;39.772;2.718;2023-08-01T07:07:35;101021.69;;;28.68;100.00
51460;BME280;37534;39.772;2.718;2023-08-01T07:10:00;101020.19;;;28.84;100.00
51460;BME280;37534;39.772;2.718;2023-08-01T07:12:26;101019.94;;;28.95;100.00
51460;BME280;37534;39.772;2.718;2023-08-01T07:14:52;101032.44;;;29.02;100.00
51460;BME280;37534;39.772;2.718;2023-08-01T07:17:17;101034.34;;;29.10;100.00
51460;BME280;37534;39.772;2.718;2023-08-01T07:19:43;101037.09;;;29.18;100.00
51460;BME280;37534;39.772;2.718;2023-08-01T07:22:09;101027.66;;;29.24;100.00
51460;BME280;37534;39.772;2.718;2023-08-01T07:24:34;101031.44;;;29.39;100.00
51460;BME280;37534;39.772;2.718;2023-08-01T07:27:00;101032.69;;;29.53;100.00
51460;BME280;37534;39.772;2.718;2023-08-01T07:29:25;101034.03;;;29.57;100.00
51460;BME280;37534;39.772;2.718;2023-08-01T07:31:51;101031.16;;;29.69;100.00
51460;BME280;37534;39.772;2.718;2023-08-01T07:34:17;101028.38;;;29.79;99.66
51460;BME280;37534;39.772;2.718;2023-08-01T07:36:42;101017.28;;;29.83;97.86
51460;BME280;37534;39.772;2.718;2023-08-01T07:39:08;101016.53;;;29.99;98.92
51460;BME280;37534;39.772;2.718;2023-08-01T07:41:33;101022.78;;;30.24;94.46
51460;BME280;37534;39.772;2.718;2023-08-01T07:44:01;101020.31;;;30.31;94.08
51460;BME280;37534;39.772;2.718;2023-08-01T07:46:31;101001.91;;;30.46;90.93
51460;BME280;37534;39.772;2.718;2023-08-01T07:48:57;101004.72;;;30.44;87.40
51460;BME280;37534;39.772;2.718;2023-08-01T07:51:23;101007.06;;;30.56;85.49
51460;BME280;37534;39.772;2.718;2023-08-01T07:53:51;101001.44;;;30.75;86.38
51460;BME280;37534;39.772;2.718;2023-08-01T07:56:17;101014.13;;;30.89;85.40
51460;BME280;37534;39.772;2.718;2023-08-01T07:58:42;101017.13;;;31.19;84.01
51460;BME280;37534;39.772;2.718;2023-08-01T08:01:08;101006.47;;;31.27;82.83
51460;BME280;37534;39.772;2.718;2023-08-01T08:03:33;101008.75;;;31.39;82.67
51460;BME280;37534;39.772;2.718;2023-08-01T08:05:59;101000.25;;;31.52;82.91
51460;BME280;37534;39.772;2.718;2023-08-01T08:08:25;101003.09;;;31.58;81.93
51460;BME280;37534;39.772;2.718;2023-08-01T08:10:50;101000.09;;;31.53;83.66
51460;BME280;37534;39.772;2.718;2023-08-01T08:13:16;100988.06;;;31.65;84.38
51460;BME280;37534;39.772;2.718;2023-08-01T08:15:42;100986.63;;;31.94;83.15
51460;BME280;37534;39.772;2.718;2023-08-01T08:18:07;100978.91;;;32.16;80.79
51460;BME280;37534;39.772;2.718;2023-08-01T08:20:44;100984.81;;;32.26;80.18
51460;BME280;37534;39.772;2.718;2023-08-01T08:23:10;100994.81;;;32.32;79.70
51460;BME280;37534;39.772;2.718;2023-08-01T08:25:38;100983.63;;;32.60;80.34
51460;BME280;37534;39.772;2.718;2023-08-01T08:28:04;100980.75;;;32.85;78.70
51460;BME280;37534;39.772;2.718;2023-08-01T08:30:29;100976.78;;;32.81;74.00
51460;BME280;37534;39.772;2.718;2023-08-01T08:32:59;100979.88;;;32.92;76.21
51460;BME280;37534;39.772;2.718;2023-08-01T08:35:33;100966.53;;;33.07;75.43
51460;BME280;37534;39.772;2.718;2023-08-01T08:38:02;100979.78;;;33.24;74.21
51460;BME280;37534;39.772;2.718;2023-08-01T08:40:27;100968.81;;;33.33;73.04
51460;BME280;37534;39.772;2.718;2023-08-01T08:42:53;100977.19;;;33.45;72.36
51460;BME280;37534;39.772;2.718;2023-08-01T08:45:20;100970.19;;;33.59;70.76
51460;BME280;37534;39.772;2.718;2023-08-01T08:47:56;100966.16;;;33.78;70.14
51460;BME280;37534;39.772;2.718;2023-08-01T08:50:24;100964.78;;;34.04;69.21
51460;BME280;37534;39.772;2.718;2023-08-01T08:52:52;100974.16;;;33.93;66.39
51460;BME280;37534;39.772;2.718;2023-08-01T08:55:19;100971.66;;;33.32;67.47
51460;BME280;37534;39.772;2.718;2023-08-01T08:57:49;100971.88;;;33.60;68.29
51460;BME280;37534;39.772;2.718;2023-08-01T09:00:17;100976.19;;;33.46;70.94
51460;BME280;37534;39.772;2.718;2023-08-01T09:02:44;100975.66;;;33.66;72.04
51460;BME280;37534;39.772;2.718;2023-08-01T09:05:09;100967.09;;;33.70;71.67
51460;BME280;37534;39.772;2.718;2023-08-01T09:07:39;100970.72;;;33.99;70.75
51460;BME280;37534;39.772;2.718;2023-08-01T09:10:07;100976.09;;;33.99;70.57
51460;BME280;37534;39.772;2.718;2023-08-01T09:12:36;100974.03;;;34.01;69.85
51460;BME280;37534;39.772;2.718;2023-08-01T09:15:01;100964.06;;;34.10;71.30
51460;BME280;37534;39.772;2.718;2023-08-01T09:17:27;100955.81;;;34.26;71.35
51460;BME280;37534;39.772;2.718;2023-08-01T09:20:06;100968.28;;;34.56;69.34
51460;BME280;37534;39.772;2.718;2023-08-01T09:22:45;100960.81;;;34.73;67.81
51460;BME280;37534;39.772;2.718;2023-08-01T09:25:11;100969.97;;;34.85;66.79
51460;BME280;37534;39.772;2.718;2023-08-01T09:27:39;100968.72;;;34.81;64.78
51460;BME280;37534;39.772;2.718;2023-08-01T09:30:12;100977.72;;;35.01;65.85
51460;BME280;37534;39.772;2.718;2023-08-01T09:32:40;100989.56;;;35.14;63.95
51460;BME280;37534;39.772;2.718;2023-08-01T09:35:15;100978.84;;;35.14;61.91
51460;BME280;37534;39.772;2.718;2023-08-01T09:37:42;100995.88;;;34.99;64.67
51460;BME280;37534;39.772;2.718;2023-08-01T09:40:11;100993.19;;;34.99;66.10
51460;BME280;37534;39.772;2.718;2023-08-01T09:42:41;101000.97;;;34.94;64.26
51460;BME280;37534;39.772;2.718;2023-08-01T09:45:12;100994.47;;;34.60;65.73
51460;BME280;37534;39.772;2.718;2023-08-01T09:47:40;101009.44;;;34.33;67.33
51460;BME280;37534;39.772;2.718;2023-08-01T09:50:06;101011.78;;;34.21;68.65
51460;BME280;37534;39.772;2.718;2023-08-01T09:52:33;101009.97;;;33.92;72.28
51460;BME280;37534;39.772;2.718;2023-08-01T09:54:58;101009.16;;;33.77;71.67
51460;BME280;37534;39.772;2.718;2023-08-01T09:57:31;101018.47;;;33.66;73.49
51460;BME280;37534;39.772;2.718;2023-08-01T09:59:57;101015.75;;;33.36;75.22
51460;BME280;37534;39.772;2.718;2023-08-01T10:02:24;101013.53;;;33.40;75.90
51460;BME280;37534;39.772;2.718;2023-08-01T10:04:52;101023.81;;;33.66;74.99
51460;BME280;37534;39.772;2.718;2023-08-01T10:07:24;101014.75;;;33.97;72.95
51460;BME280;37534;39.772;2.718;2023-08-01T10:09:54;101004.31;;;34.02;72.60
51460;BME280;37534;39.772;2.718;2023-08-01T10:12:22;101018.19;;;34.42;69.96
51460;BME280;37534;39.772;2.718;2023-08-01T10:14:48;101012.22;;;34.61;67.27
51460;BME280;37534;39.772;2.718;2023-08-01T10:17:15;101017.94;;;35.01;67.90
51460;BME280;37534;39.772;2.718;2023-08-01T10:19:42;101014.13;;;35.11;66.50
51460;BME280;37534;39.772;2.718;2023-08-01T10:22:09;101011.34;;;35.54;65.17
51460;BME280;37534;39.772;2.718;2023-08-01T10:24:36;100995.63;;;35.51;64.00
51460;BME280;37534;39.772;2.718;2023-08-01T10:27:18;101009.03;;;35.51;64.14
51460;BME280;37534;39.772;2.718;2023-08-01T10:29:44;101005.06;;;35.40;63.71
51460;BME280;37534;39.772;2.718;2023-08-01T10:32:10;101004.00;;;35.34;64.00
51460;BME280;37534;39.772;2.718;2023-08-01T10:34:36;101000.84;;;35.02;65.43
51460;BME280;37534;39.772;2.718;2023-08-01T10:37:02;100999.66;;;35.33;66.81
51460;BME280;37534;39.772;2.718;2023-08-01T10:39:28;100997.78;;;35.69;65.14
51460;BME280;37534;39.772;2.718;2023-08-01T10:42:00;100995.00;;;35.90;62.98
51460;BME280;37534;39.772;2.718;2023-08-01T10:44:27;100997.69;;;36.45;61.24
51460;BME280;37534;39.772;2.718;2023-08-01T10:46:54;101001.69;;;36.69;62.19
51460;BME280;37534;39.772;2.718;2023-08-01T10:49:40;100998.56;;;36.79;61.86
51460;BME280;37534;39.772;2.718;2023-08-01T10:52:24;101007.19;;;36.41;64.01
51460;BME280;37534;39.772;2.718;2023-08-01T10:55:10;100989.25;;;35.93;65.02
51460;BME280;37534;39.772;2.718;2023-08-01T10:57:38;101015.19;;;36.21;64.59
51460;BME280;37534;39.772;2.718;2023-08-01T11:00:05;101007.97;;;36.35;62.76
51460;BME280;37534;39.772;2.718;2023-08-01T11:02:37;101008.53;;;36.10;64.35
51460;BME280;37534;39.772;2.718;2023-08-01T11:05:04;100996.28;;;35.94;66.84
51460;BME280;37534;39.772;2.718;2023-08-01T11:07:31;101014.88;;;36.03;67.27
51460;BME280;37534;39.772;2.718;2023-08-01T11:10:10;101000.44;;;35.62;68.58
51460;BME280;37534;39.772;2.718;2023-08-01T11:12:41;101000.03;;;36.00;66.74
51460;BME280;37534;39.772;2.718;2023-08-01T11:15:08;100992.88;;;36.21;66.20
51460;BME280;37534;39.772;2.718;2023-08-01T11:17:42;101004.66;;;36.20;66.07
51460;BME280;37534;39.772;2.718;2023-08-01T11:20:10;100993.72;;;35.79;66.02
51460;BME280;37534;39.772;2.718;2023-08-01T11:22:48;101010.69;;;35.80;66.29
51460;BME280;37534;39.772;2.718;2023-08-01T11:25:15;100998.81;;;36.09;68.02
51460;BME280;37534;39.772;2.718;2023-08-01T11:27:40;100990.53;;;35.63;68.21
51460;BME280;37534;39.772;2.718;2023-08-01T11:30:06;100991.22;;;35.36;70.65
51460;BME280;37534;39.772;2.718;2023-08-01T11:32:34;100985.84;;;35.36;71.49
51460;BME280;37534;39.772;2.718;2023-08-01T11:35:00;100994.28;;;35.33;71.72
51460;BME280;37534;39.772;2.718;2023-08-01T11:37:26;100978.13;;;35.20;71.04
51460;BME280;37534;39.772;2.718;2023-08-01T11:39:52;100979.50;;;34.88;73.37
51460;BME280;37534;39.772;2.718;2023-08-01T11:42:18;100981.88;;;34.76;73.91
51460;BME280;37534;39.772;2.718;2023-08-01T11:44:44;100981.63;;;34.71;76.20
51460;BME280;37534;39.772;2.718;2023-08-01T11:47:14;100980.06;;;34.61;74.46
51460;BME280;37534;39.772;2.718;2023-08-01T11:49:46;100977.31;;;34.33;76.24
51460;BME280;37534;39.772;2.718;2023-08-01T11:52:25;100970.72;;;34.36;74.67
51460;BME280;37534;39.772;2.718;2023-08-01T11:54:51;100975.78;;;34.09;73.99
51460;BME280;37534;39.772;2.718;2023-08-01T11:57:17;100965.59;;;33.68;75.33
51460;BME280;37534;39.772;2.718;2023-08-01T11:59:55;100975.53;;;33.59;76.79
51460;BME280;37534;39.772;2.718;2023-08-01T12:02:28;100984.19;;;33.61;77.93
51460;BME280;37534;39.772;2.718;2023-08-01T12:04:57;100982.81;;;33.50;79.59
51460;BME280;37534;39.772;2.718;2023-08-01T12:07:25;100981.44;;;33.40;78.09
51460;BME280;37534;39.772;2.718;2023-08-01T12:09:58;100980.78;;;33.23;78.84
51460;BME280;37534;39.772;2.718;2023-08-01T12:12:27;100978.03;;;32.93;80.39
51460;BME280;37534;39.772;2.718;2023-08-01T12:14:53;100978.34;;;32.75;82.39
51460;BME280;37534;39.772;2.718;2023-08-01T12:17:19;100958.88;;;32.66;83.48
51460;BME280;37534;39.772;2.718;2023-08-01T12:19:45;100969.13;;;32.77;83.71
51460;BME280;37534;39.772;2.718;2023-08-01T12:22:11;100963.78;;;32.77;82.09
51460;BME280;37534;39.772;2.718;2023-08-01T12:24:37;100960.19;;;32.70;81.49
51460;BME280;37534;39.772;2.718;2023-08-01T12:27:08;100962.00;;;32.47;82.89
51460;BME280;37534;39.772;2.718;2023-08-01T12:29:34;100937.97;;;32.24;83.63
51460;BME280;37534;39.772;2.718;2023-08-01T12:32:02;100966.81;;;32.28;85.32
51460;BME280;37534;39.772;2.718;2023-08-01T12:34:27;100956.41;;;32.33;84.41
51460;BME280;37534;39.772;2.718;2023-08-01T12:36:53;100950.69;;;32.45;85.58
51460;BME280;37534;39.772;2.718;2023-08-01T12:39:18;100938.28;;;32.52;84.97
51460;BME280;37534;39.772;2.718;2023-08-01T12:41:44;100950.81;;;32.74;81.99